Time;durP1;ratioP1;P1;durP2;ratioP2;P2;SDS_P1;SDS_P2;PMS_P1;PMS_P2;Temp;Humidity;BMP_temperature;BMP_pressure;BME280_temperature;BME280_humidity;BME280_pressure;Samples;Min_cycle;Max_cycle;Signal;HPM_P1;HPM_P2
2023/01/28 00:01:07;;;;;;;;;;;-1.70;99.90;;;;;;5056469;28;19912;-75
2023/01/28 00:03:32;;;;;;;;;;;-1.60;99.90;;;;;;5055004;28;20007;-75
2023/01/28 00:06:05;;;;;;;;;;;-1.70;99.90;;;;;;5054948;28;19945;-75
2023/01/28 00:08:32;;;;;;;;;;;-1.70;99.90;;;;;;5056392;28;19992;-75
2023/01/28 00:10:59;;;;;;;;;;;-1.70;99.90;;;;;;5056924;28;20327;-75
2023/01/28 00:13:25;;;;;;;;;;;-1.70;99.90;;;;;;5056090;28;19909;-75
2023/01/28 00:15:55;;;;;;;;;;;-1.80;99.90;;;;;;5055003;28;19916;-75
2023/01/28 00:18:21;;;;;;;;;;;-1.80;99.90;;;;;;5055582;28;19943;-75
2023/01/28 00:21:19;;;;;;;;;;;-1.80;99.90;;;;;;5054924;28;19948;-75
2023/01/28 00:23:50;;;;;;;;;;;-1.80;99.90;;;;;;5022881;28;20288;-75
2023/01/28 00:26:16;;;;;;;;;;;-1.80;99.90;;;;;;5056553;28;19909;-75
2023/01/28 00:28:41;;;;;;;;;;;-1.80;99.90;;;;;;5055524;28;19927;-75
2023/01/28 00:31:08;;;;;;;;;;;-1.80;99.90;;;;;;5054285;28;20002;-75
2023/01/28 00:33:34;;;;;;;;;;;-1.80;99.90;;;;;;5056026;28;20287;-75
2023/01/28 00:36:00;;;;;;;;;;;-1.80;99.90;;;;;;5055654;28;19913;-75
2023/01/28 00:38:26;;;;;;;;;;;-1.80;99.90;;;;;;5054700;28;19919;-75
2023/01/28 00:40:51;;;;;;;;;;;-1.80;99.90;;;;;;5054897;28;19913;-75
2023/01/28 00:43:17;;;;;;;;;;;-1.80;99.90;;;;;;5054422;28;19992;-75
2023/01/28 00:45:42;;;;;;;;;;;-1.80;99.90;;;;;;5054306;28;19966;-75
2023/01/28 00:48:08;;;;;;;;;;;-1.80;99.90;;;;;;5055240;28;19919;-75
2023/01/28 00:50:34;;;;;;;;;;;-1.80;99.90;;;;;;5054498;28;20004;-75
2023/01/28 00:53:00;;;;;;;;;;;-1.80;99.90;;;;;;5054115;28;19908;-75
2023/01/28 00:55:27;;;;;;;;;;;-1.80;99.90;;;;;;5055125;28;19916;-75
2023/01/28 00:57:52;;;;;;;;;;;-1.80;99.90;;;;;;5054965;28;19924;-75
2023/01/28 01:00:20;;;;;;;;;;;-1.90;99.90;;;;;;5037201;28;20357;-75
2023/01/28 01:02:46;;;;;;;;;;;-1.90;99.90;;;;;;5055210;28;19909;-75
2023/01/28 01:05:12;;;;;;;;;;;-1.90;99.90;;;;;;5055371;28;20365;-75
2023/01/28 01:07:40;;;;;;;;;;;-1.90;99.90;;;;;;5055352;28;19920;-75
2023/01/28 01:10:07;;;;;;;;;;;-1.90;99.90;;;;;;5054654;28;19944;-75
2023/01/28 01:12:33;;;;;;;;;;;-1.90;99.90;;;;;;5053833;28;19952;-75
2023/01/28 01:14:58;;;;;;;;;;;-2.00;99.90;;;;;;5054826;28;19959;-75
2023/01/28 01:17:24;;;;;;;;;;;-2.00;99.90;;;;;;5053546;28;19921;-75
2023/01/28 01:19:49;;;;;;;;;;;-2.00;99.90;;;;;;5054808;28;19912;-75
2023/01/28 01:22:15;;;;;;;;;;;-2.00;99.90;;;;;;5053399;28;19959;-75
2023/01/28 01:24:40;;;;;;;;;;;-2.00;99.90;;;;;;5053790;28;19915;-75
2023/01/28 01:27:06;;;;;;;;;;;-2.00;99.90;;;;;;5053083;28;19920;-75
2023/01/28 01:29:32;;;;;;;;;;;-2.00;99.90;;;;;;5053137;28;20339;-75
2023/01/28 01:31:58;;;;;;;;;;;-2.00;99.90;;;;;;5053136;28;19909;-75
2023/01/28 01:34:24;;;;;;;;;;;-2.00;99.90;;;;;;5036222;28;19920;-75
2023/01/28 01:36:49;;;;;;;;;;;-2.00;99.90;;;;;;5053940;28;20395;-75
2023/01/28 01:39:15;;;;;;;;;;;-2.00;99.90;;;;;;5054352;28;19981;-75
2023/01/28 01:41:41;;;;;;;;;;;-2.00;99.90;;;;;;5054428;28;20378;-75
2023/01/28 01:44:26;;;;;;;;;;;-1.90;99.90;;;;;;5054108;28;20343;-75
2023/01/28 01:46:52;;;;;;;;;;;-1.90;99.90;;;;;;5052474;28;19913;-75
2023/01/28 01:49:22;;;;;;;;;;;-1.90;99.90;;;;;;5036400;28;19920;-75
2023/01/28 01:51:50;;;;;;;;;;;-2.00;99.90;;;;;;5054210;28;19955;-75
2023/01/28 01:54:16;;;;;;;;;;;-2.00;99.90;;;;;;5054379;28;19908;-75
2023/01/28 01:56:43;;;;;;;;;;;-2.00;99.90;;;;;;5052894;28;19948;-75
2023/01/28 01:59:11;;;;;;;;;;;-2.00;99.90;;;;;;5053014;28;19909;-75
2023/01/28 02:01:37;;;;;;;;;;;-2.00;99.90;;;;;;5054220;28;19912;-75
2023/01/28 02:04:02;;;;;;;;;;;-2.00;99.90;;;;;;5054309;28;19924;-75
2023/01/28 02:06:29;;;;;;;;;;;-2.00;99.90;;;;;;5054149;28;19909;-75
2023/01/28 02:08:55;;;;;;;;;;;-2.00;99.90;;;;;;5053603;28;20399;-75
2023/01/28 02:11:21;;;;;;;;;;;-2.00;99.90;;;;;;5054003;28;19913;-75
2023/01/28 02:13:48;;;;;;;;;;;-2.00;99.90;;;;;;5053775;28;19909;-75
2023/01/28 02:16:14;;;;;;;;;;;-2.00;99.90;;;;;;5053452;28;19917;-75
2023/01/28 02:18:39;;;;;;;;;;;-2.00;99.90;;;;;;5052071;28;19932;-75
2023/01/28 02:21:05;;;;;;;;;;;-2.00;99.90;;;;;;5053676;28;19913;-75
2023/01/28 02:23:45;;;;;;;;;;;-2.00;99.90;;;;;;5052151;28;19909;-75
2023/01/28 02:26:29;;;;;;;;;;;-2.00;99.90;;;;;;5053664;28;19909;-75
2023/01/28 02:29:30;;;;;;;;;;;-2.00;99.90;;;;;;5052866;28;19928;-75
2023/01/28 02:31:58;;;;;;;;;;;-2.00;99.90;;;;;;4956343;28;19932;-75
2023/01/28 02:34:30;;;;;;;;;;;-2.00;99.90;;;;;;5037788;28;20003;-75
2023/01/28 02:37:02;;;;;;;;;;;-2.00;99.90;;;;;;5053257;28;19912;-75
2023/01/28 02:39:34;;;;;;;;;;;-2.00;99.90;;;;;;5053173;28;19908;-75
2023/01/28 02:42:02;;;;;;;;;;;-2.00;99.90;;;;;;5051836;28;19948;-76
2023/01/28 02:44:28;;;;;;;;;;;-2.00;99.90;;;;;;5052233;28;19909;-75
2023/01/28 02:49:50;;;;;;;;;;;-2.00;99.90;;;;;;5053652;28;20333;-75
2023/01/28 02:53:39;;;;;;;;;;;-2.00;99.90;;;;;;5054520;28;19965;-75
2023/01/28 02:55:30;;;;;;;;;;;-2.00;99.90;;;;;;5058059;28;19920;-76
2023/01/28 02:58:05;;;;;;;;;;;-2.00;99.90;;;;;;5056467;28;20234;-75
2023/01/28 03:00:39;;;;;;;;;;;-1.90;99.90;;;;;;5055966;28;19925;-75
2023/01/28 03:03:18;;;;;;;;;;;-2.00;99.90;;;;;;5057346;28;19970;-75
2023/01/28 03:06:02;;;;;;;;;;;-2.00;99.90;;;;;;5057267;28;19909;-75
2023/01/28 03:39:00;;;;;;;;;;;-2.00;99.90;;;;;;5056939;28;19920;-75
2023/01/28 03:41:26;;;;;;;;;;;-2.10;99.90;;;;;;5056629;28;19912;-75
2023/01/28 03:43:52;;;;;;;;;;;-2.10;99.90;;;;;;5054859;28;19974;-75
2023/01/28 03:46:18;;;;;;;;;;;-2.10;99.90;;;;;;5055386;28;19913;-75
2023/01/28 03:48:43;;;;;;;;;;;-2.10;99.90;;;;;;5055108;28;19916;-75
2023/01/28 03:51:09;;;;;;;;;;;-2.20;99.90;;;;;;5056213;28;20003;-75
2023/01/28 03:53:35;;;;;;;;;;;-2.20;99.90;;;;;;5056004;28;19917;-75
2023/01/28 03:56:00;;;;;;;;;;;-2.20;99.90;;;;;;5055925;28;19955;-75
2023/01/28 03:58:51;;;;;;;;;;;-2.20;99.90;;;;;;5054474;28;19913;-75
2023/01/28 04:01:12;;;;;;;;;;;-2.10;99.90;;;;;;5056021;28;19919;-75
2023/01/28 04:03:38;;;;;;;;;;;-2.20;99.90;;;;;;5055790;28;20444;-75
2023/01/28 04:06:05;;;;;;;;;;;-2.20;99.90;;;;;;5055997;28;20319;-75
2023/01/28 04:08:30;;;;;;;;;;;-2.10;99.90;;;;;;5054149;28;20341;-75
2023/01/28 04:10:56;;;;;;;;;;;-2.10;99.90;;;;;;5055918;28;19975;-75
2023/01/28 04:13:22;;;;;;;;;;;-2.10;99.90;;;;;;5055448;28;19917;-75
2023/01/28 04:15:48;;;;;;;;;;;-2.10;99.90;;;;;;5054245;28;19989;-75
2023/01/28 04:18:13;;;;;;;;;;;-2.10;99.90;;;;;;5055196;28;19917;-76
2023/01/28 04:20:39;;;;;;;;;;;-2.10;99.90;;;;;;5054072;28;19924;-75
2023/01/28 04:23:05;;;;;;;;;;;-2.10;99.90;;;;;;5055718;28;19909;-75
2023/01/28 04:25:31;;;;;;;;;;;-2.10;99.90;;;;;;5054060;28;19916;-75
2023/01/28 04:27:57;;;;;;;;;;;-2.10;99.90;;;;;;5055288;28;19942;-75
2023/01/28 04:30:22;;;;;;;;;;;-2.10;99.90;;;;;;5054122;28;19928;-75
2023/01/28 04:32:51;;;;;;;;;;;-2.10;99.90;;;;;;5055266;28;20314;-75
2023/01/28 04:35:17;;;;;;;;;;;-2.10;99.90;;;;;;5054124;28;19913;-75
2023/01/28 04:37:43;;;;;;;;;;;-2.10;99.90;;;;;;5055136;28;19955;-75
2023/01/28 04:40:09;;;;;;;;;;;-2.10;99.90;;;;;;5055181;28;19913;-75
2023/01/28 04:42:35;;;;;;;;;;;-2.10;99.90;;;;;;5055201;28;19959;-75
2023/01/28 04:45:00;;;;;;;;;;;-2.10;99.90;;;;;;5049211;28;19913;-75
2023/01/28 04:47:26;;;;;;;;;;;-2.10;99.90;;;;;;5050390;28;20003;-75
2023/01/28 04:49:51;;;;;;;;;;;-2.10;99.90;;;;;;5034299;28;19941;-75
2023/01/28 04:52:17;;;;;;;;;;;-2.10;99.90;;;;;;5035162;28;19932;-75
2023/01/28 04:54:42;;;;;;;;;;;-2.10;99.90;;;;;;5017073;28;19913;-75
2023/01/28 04:57:08;;;;;;;;;;;-2.10;99.90;;;;;;5050146;28;19948;-75
2023/01/28 04:59:33;;;;;;;;;;;-2.20;99.90;;;;;;5034538;28;19936;-75
2023/01/28 05:01:59;;;;;;;;;;;-2.20;99.90;;;;;;5034716;28;19932;-75
2023/01/28 05:04:25;;;;;;;;;;;-2.20;99.90;;;;;;5034587;28;19913;-75
2023/01/28 05:06:50;;;;;;;;;;;-2.20;99.90;;;;;;5034580;28;19913;-75
2023/01/28 05:09:16;;;;;;;;;;;-2.20;99.90;;;;;;5034584;28;19999;-75
2023/01/28 05:11:41;;;;;;;;;;;-2.20;99.90;;;;;;5035122;28;19927;-75
2023/01/28 05:14:07;;;;;;;;;;;-2.20;99.90;;;;;;5017297;28;19913;-75
2023/01/28 05:16:33;;;;;;;;;;;-2.10;99.90;;;;;;5051937;28;19920;-75
2023/01/28 05:18:59;;;;;;;;;;;-2.10;99.90;;;;;;5054190;28;19913;-75
2023/01/28 05:21:25;;;;;;;;;;;-2.10;99.90;;;;;;5053837;28;20376;-76
2023/01/28 05:23:51;;;;;;;;;;;-2.20;99.90;;;;;;5054220;28;19909;-75
2023/01/28 05:26:16;;;;;;;;;;;-2.20;99.90;;;;;;5054317;28;19913;-75
2023/01/28 05:28:42;;;;;;;;;;;-2.20;99.90;;;;;;5035851;28;19932;-75
2023/01/28 05:31:08;;;;;;;;;;;-2.20;99.90;;;;;;5052382;28;19909;-75
2023/01/28 05:33:34;;;;;;;;;;;-2.20;99.90;;;;;;5054210;28;19909;-75
2023/01/28 05:35:59;;;;;;;;;;;-2.30;99.90;;;;;;5053988;28;19913;-75
2023/01/28 05:38:25;;;;;;;;;;;-2.30;99.90;;;;;;5054153;28;19960;-75
2023/01/28 05:40:50;;;;;;;;;;;-2.30;99.90;;;;;;5052848;28;19913;-75
2023/01/28 05:43:16;;;;;;;;;;;-2.30;99.90;;;;;;5053429;28;20022;-75
2023/01/28 05:45:41;;;;;;;;;;;-2.30;99.90;;;;;;5053684;28;20363;-75
2023/01/28 05:48:07;;;;;;;;;;;-2.30;99.90;;;;;;5053673;28;20000;-75
2023/01/28 05:50:33;;;;;;;;;;;-2.20;99.90;;;;;;5053898;28;20008;-75
2023/01/28 05:52:58;;;;;;;;;;;-2.20;99.90;;;;;;5052319;28;19919;-75
2023/01/28 05:55:24;;;;;;;;;;;-2.20;99.90;;;;;;5054146;28;19912;-75
2023/01/28 05:57:49;;;;;;;;;;;-2.20;99.90;;;;;;5053303;28;19917;-75
2023/01/28 06:00:15;;;;;;;;;;;-2.20;99.90;;;;;;5053713;28;20405;-75
2023/01/28 06:02:41;;;;;;;;;;;-2.20;99.90;;;;;;5053671;28;20380;-76
2023/01/28 06:05:07;;;;;;;;;;;-2.20;99.90;;;;;;5055469;28;19916;-75
2023/01/28 06:07:33;;;;;;;;;;;-2.20;99.90;;;;;;5055028;28;20019;-76
2023/01/28 06:09:58;;;;;;;;;;;-2.30;99.90;;;;;;5055082;28;19913;-75
2023/01/28 06:12:24;;;;;;;;;;;-2.30;99.90;;;;;;5056029;28;19912;-75
2023/01/28 06:14:49;;;;;;;;;;;-2.30;99.90;;;;;;5055125;28;19909;-75
2023/01/28 06:17:15;;;;;;;;;;;-2.30;99.90;;;;;;5054233;28;19964;-75
2023/01/28 06:19:40;;;;;;;;;;;-2.30;99.90;;;;;;5054967;28;19974;-75
2023/01/28 06:22:06;;;;;;;;;;;-2.30;99.90;;;;;;5055715;28;19913;-76
2023/01/28 06:24:31;;;;;;;;;;;-2.30;99.90;;;;;;5054071;28;19921;-76
2023/01/28 06:26:57;;;;;;;;;;;-2.30;99.90;;;;;;5053543;28;19977;-75
2023/01/28 06:29:23;;;;;;;;;;;-2.30;99.90;;;;;;5056710;28;19920;-75
2023/01/28 06:31:48;;;;;;;;;;;-2.30;99.90;;;;;;5058484;28;20027;-75
2023/01/28 06:34:14;;;;;;;;;;;-2.30;99.90;;;;;;5057948;28;20285;-75
2023/01/28 06:36:39;;;;;;;;;;;-2.30;99.90;;;;;;5057668;28;19913;-75
2023/01/28 06:39:05;;;;;;;;;;;-2.20;99.90;;;;;;5057993;28;19915;-75
2023/01/28 06:41:31;;;;;;;;;;;-2.20;99.90;;;;;;5058395;28;19912;-75
2023/01/28 06:43:56;;;;;;;;;;;-2.20;99.90;;;;;;5058054;28;19913;-75
2023/01/28 06:46:23;;;;;;;;;;;-2.20;99.90;;;;;;5058568;28;19917;-75
2023/01/28 06:48:49;;;;;;;;;;;-2.20;99.90;;;;;;5058749;28;19913;-75
2023/01/28 06:51:14;;;;;;;;;;;-2.20;99.90;;;;;;5058131;28;19916;-75
2023/01/28 06:53:40;;;;;;;;;;;-2.20;99.90;;;;;;5058665;28;19963;-75
2023/01/28 06:56:07;;;;;;;;;;;-2.20;99.90;;;;;;5056498;28;20046;-75
2023/01/28 06:58:33;;;;;;;;;;;-2.20;99.90;;;;;;5058202;28;19988;-75
2023/01/28 07:00:58;;;;;;;;;;;-2.20;99.90;;;;;;5058336;28;20282;-75
2023/01/28 07:03:24;;;;;;;;;;;-2.20;99.90;;;;;;5058569;28;19967;-75
2023/01/28 07:05:50;;;;;;;;;;;-2.20;99.90;;;;;;5058510;28;19916;-75
2023/01/28 07:08:15;;;;;;;;;;;-2.20;99.90;;;;;;5057929;28;19919;-75
2023/01/28 07:10:42;;;;;;;;;;;-2.20;99.90;;;;;;5057836;28;20391;-75
2023/01/28 07:13:08;;;;;;;;;;;-2.20;99.90;;;;;;5057776;28;19909;-75
2023/01/28 07:15:34;;;;;;;;;;;-2.20;99.90;;;;;;5057497;28;19916;-75
2023/01/28 07:17:59;;;;;;;;;;;-2.20;99.90;;;;;;5057219;28;19917;-75
2023/01/28 07:20:25;;;;;;;;;;;-2.20;99.90;;;;;;5055661;28;20015;-75
2023/01/28 07:22:51;;;;;;;;;;;-2.20;99.90;;;;;;5056501;28;19916;-74
2023/01/28 07:25:16;;;;;;;;;;;-2.20;99.90;;;;;;5057148;28;19916;-75
2023/01/28 07:27:46;;;;;;;;;;;-2.20;99.90;;;;;;5056715;28;19924;-75
2023/01/28 07:30:11;;;;;;;;;;;-2.30;99.90;;;;;;5055848;28;19978;-75
2023/01/28 07:32:37;;;;;;;;;;;-2.20;99.90;;;;;;5056211;28;20011;-75
2023/01/28 07:35:03;;;;;;;;;;;-2.20;99.90;;;;;;5056166;28;20009;-75
2023/01/28 07:37:28;;;;;;;;;;;-2.20;99.90;;;;;;5057028;28;19983;-75
2023/01/28 07:39:54;;;;;;;;;;;-2.20;99.90;;;;;;5055809;28;19920;-75
2023/01/28 07:42:19;;;;;;;;;;;-2.10;99.90;;;;;;5055049;28;19919;-75
2023/01/28 07:44:45;;;;;;;;;;;-2.20;99.90;;;;;;5055815;28;19913;-75
2023/01/28 07:47:10;;;;;;;;;;;-2.20;99.90;;;;;;5055830;28;19936;-75
2023/01/28 07:49:38;;;;;;;;;;;-2.20;99.90;;;;;;5055454;28;19974;-75
2023/01/28 07:52:04;;;;;;;;;;;-2.10;99.90;;;;;;5056335;28;19920;-75
2023/01/28 07:54:30;;;;;;;;;;;-2.10;99.90;;;;;;5055979;28;19955;-75
2023/01/28 07:56:55;;;;;;;;;;;-2.10;99.90;;;;;;5055702;28;19960;-75
2023/01/28 07:59:21;;;;;;;;;;;-2.10;99.90;;;;;;5055415;28;19931;-75
2023/01/28 08:01:47;;;;;;;;;;;-2.10;99.90;;;;;;5055782;28;20004;-75
2023/01/28 08:04:12;;;;;;;;;;;-2.10;99.90;;;;;;5055603;28;19912;-75
2023/01/28 08:06:38;;;;;;;;;;;-2.10;99.90;;;;;;5055760;28;19920;-75
2023/01/28 08:09:05;;;;;;;;;;;-2.10;99.90;;;;;;5055120;28;19924;-75
2023/01/28 08:11:31;;;;;;;;;;;-2.10;99.90;;;;;;5055432;28;20008;-75
2023/01/28 08:13:57;;;;;;;;;;;-2.10;99.90;;;;;;5053319;28;19913;-75
2023/01/28 08:16:22;;;;;;;;;;;-2.10;99.90;;;;;;5054931;28;19920;-75
2023/01/28 08:18:48;;;;;;;;;;;-2.10;99.90;;;;;;5055123;28;19917;-75
2023/01/28 08:21:13;;;;;;;;;;;-2.10;99.90;;;;;;5055261;28;20307;-75
2023/01/28 08:23:39;;;;;;;;;;;-2.00;99.90;;;;;;5054867;28;20288;-75
2023/01/28 08:26:05;;;;;;;;;;;-2.00;99.90;;;;;;5054794;28;19912;-75
2023/01/28 08:28:31;;;;;;;;;;;-2.00;99.90;;;;;;5054948;28;20267;-75
2023/01/28 08:30:59;;;;;;;;;;;-2.00;99.90;;;;;;5053444;28;19951;-75
2023/01/28 08:33:24;;;;;;;;;;;-2.00;99.90;;;;;;5054989;28;19909;-75
2023/01/28 08:35:50;;;;;;;;;;;-2.00;99.90;;;;;;5053563;28;19967;-75
2023/01/28 08:38:16;;;;;;;;;;;-2.00;99.90;;;;;;5053021;28;20270;-75
2023/01/28 08:40:42;;;;;;;;;;;-2.00;99.90;;;;;;5054603;28;20051;-75
2023/01/28 08:43:08;;;;;;;;;;;-1.90;99.90;;;;;;5054642;28;19909;-75
2023/01/28 08:45:33;;;;;;;;;;;-1.90;99.90;;;;;;5044272;28;19913;-75
2023/01/28 08:48:10;;;;;;;;;;;-1.80;99.90;;;;;;5034405;28;19913;-75
2023/01/28 08:50:37;;;;;;;;;;;-1.70;99.90;;;;;;5033708;28;19932;-74
2023/01/28 08:53:04;;;;;;;;;;;-1.70;99.90;;;;;;5034456;28;20380;-74
2023/01/28 08:55:30;;;;;;;;;;;-1.60;99.90;;;;;;5034610;28;19909;-75
2023/01/28 08:57:56;;;;;;;;;;;-1.60;99.90;;;;;;5034562;28;19913;-75
2023/01/28 09:00:21;;;;;;;;;;;-1.50;99.90;;;;;;5044775;28;20010;-75
2023/01/28 09:02:51;;;;;;;;;;;-1.50;99.90;;;;;;5054192;28;19913;-75
2023/01/28 09:05:17;;;;;;;;;;;-1.40;99.90;;;;;;5052901;28;20331;-75
2023/01/28 09:07:43;;;;;;;;;;;-1.30;99.90;;;;;;5054365;28;20004;-75
2023/01/28 09:10:09;;;;;;;;;;;-1.30;99.90;;;;;;5070182;28;20011;-75
2023/01/28 09:12:34;;;;;;;;;;;-1.30;99.90;;;;;;5072316;28;19962;-75
2023/01/28 09:15:00;;;;;;;;;;;-1.30;99.90;;;;;;5053457;28;19975;-75
2023/01/28 09:17:26;;;;;;;;;;;-1.30;99.90;;;;;;5053546;28;19935;-75
2023/01/28 09:19:51;;;;;;;;;;;-1.30;99.90;;;;;;5041572;28;19917;-75
2023/01/28 09:22:17;;;;;;;;;;;-1.30;99.90;;;;;;5034265;28;19913;-75
2023/01/28 09:24:42;;;;;;;;;;;-1.20;99.90;;;;;;5033630;28;19913;-75
2023/01/28 09:27:08;;;;;;;;;;;-1.10;99.90;;;;;;5033549;28;20344;-75
2023/01/28 09:29:34;;;;;;;;;;;-1.10;99.90;;;;;;5036145;28;19925;-75
2023/01/28 09:31:59;;;;;;;;;;;-1.10;99.90;;;;;;5050707;28;19921;-75
2023/01/28 09:34:25;;;;;;;;;;;-1.10;99.90;;;;;;5052954;28;20008;-75
2023/01/28 09:36:50;;;;;;;;;;;-1.00;99.90;;;;;;5053171;28;20372;-75
2023/01/28 09:39:16;;;;;;;;;;;-1.00;99.90;;;;;;5053686;28;19952;-75
2023/01/28 09:42:00;;;;;;;;;;;-1.10;99.90;;;;;;5053932;28;19924;-75
2023/01/28 09:44:28;;;;;;;;;;;-1.00;99.90;;;;;;5053253;28;19955;-75
2023/01/28 09:46:59;;;;;;;;;;;-1.00;99.90;;;;;;5053689;28;19915;-75
2023/01/28 09:49:32;;;;;;;;;;;-1.10;99.90;;;;;;5053369;28;19909;-75
2023/01/28 09:51:58;;;;;;;;;;;-1.00;99.90;;;;;;5053984;28;19909;-75
2023/01/28 09:54:23;;;;;;;;;;;-1.00;99.90;;;;;;5052484;28;20349;-75
2023/01/28 09:56:52;;;;;;;;;;;-0.90;99.90;;;;;;5052232;28;19913;-75
2023/01/28 09:59:19;;;;;;;;;;;-0.80;99.90;;;;;;5053290;28;19915;-75
2023/01/28 10:02:17;;;;;;;;;;;-0.80;99.90;;;;;;5053450;28;19909;-75
2023/01/28 10:04:52;;;;;;;;;;;-0.80;99.90;;;;;;5009993;28;19966;-75
2023/01/28 10:07:24;;;;;;;;;;;-0.60;99.90;;;;;;5053712;28;19932;-75
2023/01/28 10:09:49;;;;;;;;;;;-0.60;99.90;;;;;;5053660;28;19908;-75
2023/01/28 10:12:15;;;;;;;;;;;-0.50;99.90;;;;;;5053609;28;19971;-75
2023/01/28 10:14:41;;;;;;;;;;;-0.50;99.90;;;;;;5053239;28;19999;-75
2023/01/28 10:17:09;;;;;;;;;;;-0.50;99.90;;;;;;5053521;28;19913;-75
2023/01/28 10:19:40;;;;;;;;;;;-0.40;99.90;;;;;;5053504;28;19916;-75
2023/01/28 10:22:11;;;;;;;;;;;-0.40;99.90;;;;;;5053905;28;20444;-75
2023/01/28 10:25:00;;;;;;;;;;;-0.30;99.90;;;;;;5054069;28;19909;-75
2023/01/28 10:27:30;;;;;;;;;;;-0.30;99.90;;;;;;5052336;28;19962;-75
2023/01/28 10:29:57;;;;;;;;;;;-0.20;99.90;;;;;;5053196;28;19944;-75
2023/01/28 10:32:33;;;;;;;;;;;-0.20;99.90;;;;;;5053735;28;19920;-75
2023/01/28 10:35:00;;;;;;;;;;;-0.20;99.90;;;;;;5052230;28;19916;-75
2023/01/28 10:37:27;;;;;;;;;;;-0.20;99.90;;;;;;5053675;28;19920;-75
2023/01/28 10:39:55;;;;;;;;;;;-0.10;99.90;;;;;;5053528;28;20369;-75
2023/01/28 10:42:26;;;;;;;;;;;0.00;99.90;;;;;;5053420;28;19908;-75
2023/01/28 10:44:54;;;;;;;;;;;0.10;99.90;;;;;;5053181;28;19912;-75
2023/01/28 10:47:27;;;;;;;;;;;0.20;99.90;;;;;;5053245;28;19909;-75
2023/01/28 10:49:56;;;;;;;;;;;0.30;99.90;;;;;;5053292;28;19909;-75
2023/01/28 10:52:22;;;;;;;;;;;0.50;99.90;;;;;;5053884;28;20080;-75
2023/01/28 10:54:57;;;;;;;;;;;0.70;99.90;;;;;;5051713;28;19955;-75
2023/01/28 10:57:23;;;;;;;;;;;0.80;99.90;;;;;;5052811;28;20464;-75
2023/01/28 10:59:49;;;;;;;;;;;0.80;99.90;;;;;;5041336;28;19948;-75
2023/01/28 11:02:25;;;;;;;;;;;0.80;99.90;;;;;;5052978;28;19913;-75
2023/01/28 11:05:09;;;;;;;;;;;0.70;99.90;;;;;;5051957;28;19909;-75
2023/01/28 11:07:34;;;;;;;;;;;0.70;99.90;;;;;;5052516;28;19963;-75
2023/01/28 11:10:00;;;;;;;;;;;0.70;99.90;;;;;;5052131;28;19960;-75
2023/01/28 11:12:27;;;;;;;;;;;0.70;99.90;;;;;;5053006;28;20369;-75
2023/01/28 11:14:56;;;;;;;;;;;0.80;99.90;;;;;;5054775;28;19913;-75
2023/01/28 11:17:24;;;;;;;;;;;0.80;99.90;;;;;;5053085;28;19948;-75
2023/01/28 11:19:53;;;;;;;;;;;0.90;99.90;;;;;;5056296;28;20408;-75
2023/01/28 11:22:28;;;;;;;;;;;1.00;99.90;;;;;;5056320;28;20007;-75
2023/01/28 11:24:53;;;;;;;;;;;1.00;99.90;;;;;;5055265;28;20380;-75
2023/01/28 11:27:23;;;;;;;;;;;1.10;99.90;;;;;;5056852;28;19909;-75
2023/01/28 11:29:56;;;;;;;;;;;1.20;99.90;;;;;;5055108;28;19916;-76
2023/01/28 11:32:24;;;;;;;;;;;1.30;99.90;;;;;;5055933;28;19909;-75
2023/01/28 11:34:50;;;;;;;;;;;1.40;99.90;;;;;;5055940;28;19958;-75
2023/01/28 11:37:17;;;;;;;;;;;1.60;99.90;;;;;;5055083;28;19913;-75
2023/01/28 11:39:43;;;;;;;;;;;1.70;99.90;;;;;;5056500;28;20388;-76
2023/01/28 11:42:18;;;;;;;;;;;1.70;99.90;;;;;;5055179;28;19947;-75
2023/01/28 11:44:44;;;;;;;;;;;1.70;99.90;;;;;;5055727;28;19930;-75
2023/01/28 11:47:10;;;;;;;;;;;1.60;99.90;;;;;;5056281;28;20392;-74
2023/01/28 11:49:56;;;;;;;;;;;1.60;99.90;;;;;;5056093;28;19940;-75
2023/01/28 11:52:42;;;;;;;;;;;1.60;99.90;;;;;;5056344;28;19909;-75
2023/01/28 11:55:34;;;;;;;;;;;1.50;99.90;;;;;;5035664;28;19916;-75
2023/01/28 11:57:59;;;;;;;;;;;1.50;99.90;;;;;;5016855;28;19919;-75
2023/01/28 12:00:41;;;;;;;;;;;1.40;99.90;;;;;;5055271;28;20312;-75
2023/01/28 12:03:15;;;;;;;;;;;1.30;99.90;;;;;;5055813;28;19909;-75
2023/01/28 12:05:45;;;;;;;;;;;1.30;99.90;;;;;;5055720;28;19909;-76
2023/01/28 12:08:11;;;;;;;;;;;1.40;99.90;;;;;;5055510;28;19909;-75
2023/01/28 12:10:40;;;;;;;;;;;1.40;99.90;;;;;;5055590;28;19916;-76
2023/01/28 12:13:05;;;;;;;;;;;1.50;99.90;;;;;;5055113;28;20377;-76
2023/01/28 12:15:36;;;;;;;;;;;1.60;99.90;;;;;;5054610;28;19915;-76
2023/01/28 12:18:07;;;;;;;;;;;1.70;99.90;;;;;;5054507;28;19917;-76
2023/01/28 12:20:33;;;;;;;;;;;1.90;99.90;;;;;;5055336;28;20026;-76
2023/01/28 12:23:03;;;;;;;;;;;1.90;99.90;;;;;;5055369;28;19908;-76
2023/01/28 12:25:36;;;;;;;;;;;1.90;99.90;;;;;;5054338;28;19987;-75
2023/01/28 12:28:07;;;;;;;;;;;1.70;99.90;;;;;;5053828;28;19909;-75
2023/01/28 12:30:42;;;;;;;;;;;1.60;99.90;;;;;;5054713;28;20373;-76
2023/01/28 12:33:27;;;;;;;;;;;1.50;99.90;;;;;;5055167;28;19909;-75
2023/01/28 12:36:06;;;;;;;;;;;1.40;99.90;;;;;;5055157;28;20339;-75
2023/01/28 12:38:34;;;;;;;;;;;1.30;99.90;;;;;;5054776;28;19920;-75
2023/01/28 12:41:19;;;;;;;;;;;1.30;99.90;;;;;;5054939;28;19916;-75
2023/01/28 12:43:44;;;;;;;;;;;1.30;99.90;;;;;;5055127;28;20341;-75
2023/01/28 12:46:13;;;;;;;;;;;1.20;99.90;;;;;;5054268;28;19940;-75
2023/01/28 12:48:40;;;;;;;;;;;1.20;99.90;;;;;;5054930;28;20011;-75
2023/01/28 12:51:27;;;;;;;;;;;1.20;99.90;;;;;;5054786;28;19917;-75
2023/01/28 12:53:59;;;;;;;;;;;1.20;99.90;;;;;;5054784;28;19916;-75
2023/01/28 12:56:30;;;;;;;;;;;1.30;99.90;;;;;;5054779;28;19919;-75
2023/01/28 12:59:01;;;;;;;;;;;1.20;99.90;;;;;;5054582;28;19912;-75
2023/01/28 13:01:50;;;;;;;;;;;1.20;99.90;;;;;;5054158;28;19909;-75
2023/01/28 13:04:28;;;;;;;;;;;1.10;99.90;;;;;;5043792;28;19930;-75
2023/01/28 13:07:14;;;;;;;;;;;1.10;99.90;;;;;;5054668;28;19909;-75
2023/01/28 13:09:43;;;;;;;;;;;1.10;99.90;;;;;;5053829;28;20364;-75
2023/01/28 13:12:10;;;;;;;;;;;1.00;99.90;;;;;;5054394;28;19909;-75
2023/01/28 13:14:36;;;;;;;;;;;1.00;99.90;;;;;;5053757;28;19909;-75
2023/01/28 13:17:08;;;;;;;;;;;0.90;99.90;;;;;;5052950;28;19924;-75
2023/01/28 13:19:39;;;;;;;;;;;0.90;99.90;;;;;;5054189;28;20297;-75
2023/01/28 13:22:12;;;;;;;;;;;0.80;99.90;;;;;;5054286;28;19909;-75
2023/01/28 13:24:38;;;;;;;;;;;0.70;99.90;;;;;;5052804;28;20323;-75
2023/01/28 13:27:11;;;;;;;;;;;0.70;99.90;;;;;;5054175;28;19913;-75
2023/01/28 13:29:37;;;;;;;;;;;0.60;99.90;;;;;;5053386;28;19959;-75
2023/01/28 13:32:22;;;;;;;;;;;0.60;99.90;;;;;;5054110;28;20366;-75
2023/01/28 13:34:55;;;;;;;;;;;0.50;99.90;;;;;;5050082;28;19916;-75
2023/01/28 13:37:23;;;;;;;;;;;0.40;99.90;;;;;;5053584;28;19919;-75
2023/01/28 13:39:51;;;;;;;;;;;0.30;99.90;;;;;;5053806;28;19909;-75
2023/01/28 13:42:21;;;;;;;;;;;0.20;99.90;;;;;;5053905;28;19909;-75
2023/01/28 13:44:47;;;;;;;;;;;0.10;99.90;;;;;;5053287;28;19931;-75
2023/01/28 13:47:19;;;;;;;;;;;0.00;99.90;;;;;;5053763;28;20380;-75
2023/01/28 13:49:46;;;;;;;;;;;0.00;99.90;;;;;;5053771;28;20456;-74
2023/01/28 13:52:32;;;;;;;;;;;0.00;99.90;;;;;;5053723;28;20285;-74
2023/01/28 13:54:58;;;;;;;;;;;0.00;99.90;;;;;;5039592;28;20003;-75
2023/01/28 13:57:23;;;;;;;;;;;0.00;99.90;;;;;;5053630;28;20054;-75
2023/01/28 14:00:01;;;;;;;;;;;0.10;99.90;;;;;;5052249;28;19995;-75
2023/01/28 14:02:26;;;;;;;;;;;0.10;99.90;;;;;;5053668;28;19909;-75
2023/01/28 14:05:10;;;;;;;;;;;0.10;99.90;;;;;;5053596;28;19978;-75
2023/01/28 14:07:39;;;;;;;;;;;0.10;99.90;;;;;;5053571;28;20392;-75
2023/01/28 14:10:23;;;;;;;;;;;0.10;99.90;;;;;;5053406;28;20011;-75
2023/01/28 14:12:57;;;;;;;;;;;0.10;99.90;;;;;;5053425;28;19912;-75
2023/01/28 14:15:42;;;;;;;;;;;0.20;99.90;;;;;;5052977;28;20280;-75
2023/01/28 14:18:24;;;;;;;;;;;0.20;99.90;;;;;;5053298;28;20308;-75
2023/01/28 14:20:50;;;;;;;;;;;0.20;99.90;;;;;;5053451;28;19909;-75
2023/01/28 14:23:17;;;;;;;;;;;0.30;99.90;;;;;;5053349;28;20357;-75
2023/01/28 14:25:46;;;;;;;;;;;0.30;99.90;;;;;;5053366;28;19919;-75
2023/01/28 14:28:16;;;;;;;;;;;0.20;99.90;;;;;;5053142;28;19917;-75
2023/01/28 14:30:58;;;;;;;;;;;0.20;99.90;;;;;;5052822;28;19913;-75
2023/01/28 14:33:24;;;;;;;;;;;0.20;99.90;;;;;;5053431;28;19913;-75
2023/01/28 14:35:50;;;;;;;;;;;0.20;99.90;;;;;;5053312;28;19912;-75
2023/01/28 14:38:17;;;;;;;;;;;0.20;99.90;;;;;;5053067;28;20371;-75
2023/01/28 14:40:43;;;;;;;;;;;0.20;99.90;;;;;;5053168;28;19913;-75
2023/01/28 14:43:15;;;;;;;;;;;0.20;99.90;;;;;;5053200;28;19958;-75
2023/01/28 14:45:49;;;;;;;;;;;0.30;99.90;;;;;;5052858;28;20316;-75
2023/01/28 14:48:15;;;;;;;;;;;0.30;99.90;;;;;;5047855;28;19952;-75
2023/01/28 14:50:59;;;;;;;;;;;0.20;99.90;;;;;;5057092;28;19941;-75
2023/01/28 14:53:25;;;;;;;;;;;0.20;99.90;;;;;;5057086;28;19908;-75
2023/01/28 14:56:04;;;;;;;;;;;0.20;99.90;;;;;;5057086;28;19938;-75
2023/01/28 14:58:36;;;;;;;;;;;0.20;99.90;;;;;;5055424;28;19920;-75
2023/01/28 15:01:01;;;;;;;;;;;0.10;99.90;;;;;;5056439;28;19909;-75
2023/01/28 15:03:28;;;;;;;;;;;0.00;99.90;;;;;;5056809;28;19909;-75